Time;durP1;ratioP1;P1;durP2;ratioP2;P2;SDS_P1;SDS_P2;PMS_P1;PMS_P2;Temp;Humidity;BMP_temperature;BMP_pressure;BME280_temperature;BME280_humidity;BME280_pressure;Samples;Min_cycle;Max_cycle;Signal;HPM_P1;HPM_P2
2021/11/05 00:01:39;;;;;;;4.03;3.33;;;8.30;99.90;;;;;;5036222;28;20209;-64
2021/11/05 00:04:05;;;;;;;4.70;4.23;;;8.30;99.90;;;;;;5018854;28;20184;-64
2021/11/05 00:06:31;;;;;;;1.47;1.37;;;8.30;99.90;;;;;;5036094;28;20176;-64
2021/11/05 00:08:56;;;;;;;1.80;1.70;;;8.40;99.90;;;;;;5036083;28;20178;-64
2021/11/05 00:11:22;;;;;;;5.37;3.50;;;8.30;99.90;;;;;;5035931;28;20643;-64
2021/11/05 00:13:47;;;;;;;1.73;1.17;;;8.30;99.90;;;;;;5035699;28;20627;-64
2021/11/05 00:16:13;;;;;;;2.77;2.30;;;8.30;99.90;;;;;;5035477;28;20622;-64
2021/11/05 00:18:38;;;;;;;5.63;4.83;;;8.10;99.90;;;;;;5035443;28;20192;-64
2021/11/05 00:21:04;;;;;;;6.17;5.20;;;8.00;99.90;;;;;;5035690;28;20205;-64
2021/11/05 00:23:29;;;;;;;0.60;0.60;;;8.00;99.90;;;;;;5035631;28;20603;-65
2021/11/05 00:25:55;;;;;;;3.80;2.70;;;8.10;99.90;;;;;;5035528;28;20184;-64
2021/11/05 00:28:21;;;;;;;0.73;0.73;;;8.10;99.90;;;;;;5035382;28;20208;-64
2021/11/05 00:30:47;;;;;;;3.17;2.87;;;8.10;99.90;;;;;;5035515;28;20220;-64
2021/11/05 00:33:12;;;;;;;7.15;6.05;;;8.10;99.90;;;;;;5035377;28;20192;-64
2021/11/05 00:35:38;;;;;;;4.90;3.87;;;8.00;99.90;;;;;;5033973;28;20189;-64
2021/11/05 00:38:04;;;;;;;4.80;4.30;;;8.10;99.90;;;;;;5017928;28;20558;-64
2021/11/05 00:40:30;;;;;;;3.07;2.53;;;8.10;99.90;;;;;;5035341;28;20541;-64
2021/11/05 00:42:56;;;;;;;3.15;2.90;;;8.00;99.90;;;;;;5035334;28;20219;-64
2021/11/05 00:45:22;;;;;;;2.50;2.30;;;8.00;99.90;;;;;;5017746;28;20181;-64
2021/11/05 00:47:48;;;;;;;4.53;4.20;;;8.00;99.90;;;;;;5017872;28;20515;-64
2021/11/05 00:50:13;;;;;;;1.63;1.43;;;8.00;99.90;;;;;;5035043;28;20182;-64
2021/11/05 00:52:39;;;;;;;3.30;1.33;;;8.00;99.90;;;;;;5035402;28;20185;-65
2021/11/05 00:55:06;;;;;;;2.80;2.60;;;8.10;99.90;;;;;;5035166;28;20186;-65
2021/11/05 00:57:32;;;;;;;4.97;2.75;;;8.10;99.90;;;;;;5035336;28;20181;-64
2021/11/05 00:59:57;;;;;;;5.20;4.33;;;8.00;99.90;;;;;;5035036;28;20205;-64
2021/11/05 01:02:23;;;;;;;4.87;2.43;;;8.10;99.90;;;;;;5035097;28;20172;-64
2021/11/05 01:04:48;;;;;;;1.13;1.13;;;8.10;99.90;;;;;;5034875;28;20425;-64
2021/11/05 01:07:14;;;;;;;3.03;2.93;;;7.90;99.90;;;;;;5035122;28;20194;-64
2021/11/05 01:09:40;;;;;;;1.40;1.40;;;8.00;99.90;;;;;;5034889;28;20182;-65
2021/11/05 01:12:06;;;;;;;5.20;2.73;;;8.10;99.90;;;;;;5017506;28;20180;-64
2021/11/05 01:14:32;;;;;;;4.50;3.83;;;8.10;99.90;;;;;;5033939;28;20830;-64
2021/11/05 01:16:58;;;;;;;2.22;1.27;;;8.10;99.90;;;;;;5016409;28;20218;-64
2021/11/05 01:19:25;;;;;;;1.60;1.60;;;8.00;99.90;;;;;;5033462;28;20256;-64
2021/11/05 01:21:51;;;;;;;0.47;0.30;;;8.10;99.90;;;;;;5033795;28;20342;-64
2021/11/05 01:24:16;;;;;;;7.30;0.93;;;8.10;99.90;;;;;;5016230;28;20649;-64
2021/11/05 01:26:42;;;;;;;2.53;2.33;;;8.10;99.90;;;;;;5033968;28;20267;-64
2021/11/05 01:29:07;;;;;;;5.70;2.67;;;8.00;99.90;;;;;;5032835;28;20242;-64
2021/11/05 01:31:33;;;;;;;5.90;5.47;;;8.10;99.90;;;;;;5033641;28;20244;-64
2021/11/05 01:33:59;;;;;;;1.00;1.00;;;8.00;99.90;;;;;;5033921;28;20185;-64
2021/11/05 01:36:25;;;;;;;7.43;2.53;;;7.90;99.90;;;;;;5033642;28;20177;-64
2021/11/05 01:38:50;;;;;;;4.00;2.57;;;8.00;99.90;;;;;;5033321;28;20419;-64
2021/11/05 01:41:16;;;;;;;16.43;4.20;;;8.10;99.90;;;;;;5016186;28;20559;-64
2021/11/05 01:43:45;;;;;;;3.80;2.63;;;8.00;99.90;;;;;;5033562;28;20610;-64
2021/11/05 01:46:10;;;;;;;4.18;3.00;;;8.10;99.90;;;;;;5033663;28;20256;-64
2021/11/05 01:48:36;;;;;;;3.90;3.60;;;8.10;99.90;;;;;;5015944;28;20215;-64
2021/11/05 01:51:02;;;;;;;4.73;3.67;;;8.00;99.90;;;;;;5033646;28;20174;-64
2021/11/05 01:53:28;;;;;;;0.20;0.20;;;8.00;99.90;;;;;;5033576;28;20424;-64
2021/11/05 01:55:53;;;;;;;2.20;1.00;;;7.90;99.90;;;;;;5033318;28;20221;-64
2021/11/05 01:58:20;;;;;;;1.57;1.47;;;8.10;99.90;;;;;;5033349;28;20185;-64
2021/11/05 02:00:46;;;;;;;1.20;1.10;;;8.10;99.90;;;;;;5016072;28;20208;-64
2021/11/05 02:03:12;;;;;;;3.05;2.58;;;8.10;99.90;;;;;;5033636;28;20323;-65
2021/11/05 02:05:38;;;;;;;4.80;2.87;;;8.10;99.90;;;;;;5033884;28;20238;-63
2021/11/05 02:08:04;;;;;;;7.72;5.72;;;8.10;99.90;;;;;;5032968;28;20192;-62
2021/11/05 02:10:30;;;;;;;6.90;5.10;;;8.00;99.90;;;;;;5015472;28;20189;-62
2021/11/05 02:12:57;;;;;;;0.70;0.70;;;8.10;99.90;;;;;;4988951;28;1274602;-66
2021/11/05 02:15:24;;;;;;;1.63;1.45;;;8.10;99.90;;;;;;5033841;28;20897;-63
2021/11/05 02:17:50;;;;;;;5.57;4.97;;;8.00;99.90;;;;;;5016243;28;20213;-63
2021/11/05 02:20:25;;;;;;;1.13;1.00;;;8.00;99.90;;;;;;5033369;28;20305;-62
2021/11/05 02:22:53;;;;;;;0.77;0.77;;;8.10;99.90;;;;;;5033658;28;20465;-63
2021/11/05 02:25:19;;;;;;;0.20;0.20;;;8.10;99.90;;;;;;5033590;28;20611;-64
2021/11/05 02:27:45;;;;;;;0.85;0.85;;;8.20;99.90;;;;;;5033735;28;20524;-64
2021/11/05 02:30:11;;;;;;;8.47;3.40;;;8.10;99.90;;;;;;5033609;28;20187;-64
2021/11/05 02:32:40;;;;;;;1.65;1.58;;;8.10;99.90;;;;;;5034092;28;20189;-64
2021/11/05 02:35:07;;;;;;;2.88;2.20;;;8.00;99.90;;;;;;5033525;28;20648;-64
2021/11/05 02:37:33;;;;;;;0.65;0.65;;;8.00;99.90;;;;;;5033447;28;20618;-66
2021/11/05 02:39:58;;;;;;;0.63;0.63;;;8.00;99.90;;;;;;5032212;28;20212;-66
2021/11/05 02:42:24;;;;;;;2.20;1.40;;;8.10;99.90;;;;;;5034065;28;20268;-64
2021/11/05 02:44:50;;;;;;;0.83;0.70;;;8.10;99.90;;;;;;5033693;28;20620;-64
2021/11/05 02:47:25;;;;;;;2.70;1.43;;;8.00;99.90;;;;;;5033459;28;20456;-64
2021/11/05 02:49:52;;;;;;;0.63;0.63;;;8.00;99.90;;;;;;5033517;28;20199;-64
2021/11/05 02:52:18;;;;;;;2.08;1.75;;;8.00;99.90;;;;;;5033581;28;20668;-65
2021/11/05 02:54:44;;;;;;;4.57;3.28;;;8.00;99.90;;;;;;5033675;28;20186;-64
2021/11/05 02:57:10;;;;;;;0.60;0.40;;;8.00;99.90;;;;;;5033323;28;20200;-64
2021/11/05 02:59:36;;;;;;;0.77;0.60;;;8.00;99.90;;;;;;5033252;28;20182;-64
2021/11/05 03:02:04;;;;;;;1.02;1.02;;;7.90;99.90;;;;;;5033767;28;20919;-67
2021/11/05 03:04:29;;;;;;;3.60;1.30;;;8.00;99.90;;;;;;5033485;28;20182;-67
2021/11/05 03:07:00;;;;;;;1.70;1.43;;;7.90;99.90;;;;;;5033599;28;20204;-68
2021/11/05 03:09:32;;;;;;;3.10;2.13;;;8.00;99.90;;;;;;5033349;28;20189;-67
2021/11/05 03:11:58;;;;;;;1.45;1.30;;;8.00;99.90;;;;;;5033493;28;20166;-67
2021/11/05 03:14:24;;;;;;;0.30;0.20;;;8.10;99.90;;;;;;5033174;28;20200;-65
2021/11/05 03:16:49;;;;;;;1.47;1.37;;;8.10;99.90;;;;;;5033265;28;20303;-65
2021/11/05 03:19:15;;;;;;;0.43;0.43;;;8.00;99.90;;;;;;5015688;28;20174;-65
2021/11/05 03:21:41;;;;;;;0.20;0.20;;;8.10;99.90;;;;;;5033387;28;20252;-65
2021/11/05 03:24:07;;;;;;;4.93;4.40;;;8.10;99.90;;;;;;5015881;28;20191;-65
2021/11/05 03:26:32;;;;;;;4.73;3.00;;;8.10;99.90;;;;;;5033408;28;20462;-65
2021/11/05 03:28:58;;;;;;;7.17;3.67;;;8.10;99.90;;;;;;5032949;28;20174;-65
2021/11/05 03:31:23;;;;;;;0.60;0.60;;;8.00;99.90;;;;;;5033267;28;20186;-65
2021/11/05 03:33:49;;;;;;;1.90;1.27;;;8.00;99.90;;;;;;5033167;28;20189;-65
2021/11/05 03:36:15;;;;;;;7.77;4.03;;;8.10;99.90;;;;;;5033279;28;20181;-65
2021/11/05 03:38:41;;;;;;;2.93;2.13;;;8.10;99.90;;;;;;5032922;28;20188;-65
2021/11/05 03:41:06;;;;;;;2.30;2.25;;;8.10;99.90;;;;;;5033069;28;20196;-67
2021/11/05 03:43:32;;;;;;;1.83;1.50;;;8.30;99.90;;;;;;5015486;28;20185;-65
2021/11/05 03:45:58;;;;;;;0.20;0.20;;;8.30;99.90;;;;;;5032895;28;20174;-65
2021/11/05 03:48:23;;;;;;;3.73;2.17;;;8.30;99.90;;;;;;5032736;28;20535;-65
2021/11/05 03:50:49;;;;;;;1.97;1.23;;;8.40;99.90;;;;;;5033334;28;20425;-64
2021/11/05 03:53:14;;;;;;;2.07;1.97;;;8.40;99.90;;;;;;5036391;28;20255;-64
2021/11/05 03:55:41;;;;;;;0.20;0.10;;;8.40;99.90;;;;;;5036523;28;20188;-64
2021/11/05 03:58:07;;;;;;;2.38;1.50;;;8.60;99.90;;;;;;5019089;28;20200;-65
2021/11/05 04:00:32;;;;;;;0.20;0.20;;;8.60;99.90;;;;;;5036532;28;20246;-65
2021/11/05 04:02:58;;;;;;;0.20;0.20;;;8.60;99.90;;;;;;5036350;28;20428;-65
2021/11/05 04:05:23;;;;;;;0.60;0.60;;;8.70;99.90;;;;;;5036283;28;20189;-64
2021/11/05 04:07:51;;;;;;;1.50;1.43;;;8.70;99.90;;;;;;5019055;28;20622;-64
2021/11/05 04:10:17;;;;;;;1.80;1.70;;;8.80;99.90;;;;;;5035941;28;20188;-65
2021/11/05 04:12:43;;;;;;;1.35;0.93;;;8.80;99.90;;;;;;5036202;28;20210;-65
2021/11/05 04:15:09;;;;;;;3.20;1.90;;;8.80;99.90;;;;;;5036016;28;20681;-64
2021/11/05 04:17:36;;;;;;;0.32;0.32;;;8.90;99.90;;;;;;5035936;28;20434;-64
2021/11/05 04:20:06;;;;;;;0.77;0.63;;;9.00;99.90;;;;;;5018205;28;20227;-64
2021/11/05 04:22:32;;;;;;;0.95;0.38;;;9.00;99.90;;;;;;5036107;28;20292;-64
2021/11/05 04:24:57;;;;;;;0.63;0.63;;;9.00;99.90;;;;;;5035802;28;20192;-67
2021/11/05 04:27:23;;;;;;;0.57;0.57;;;9.00;99.90;;;;;;5035803;28;20193;-67
2021/11/05 04:29:49;;;;;;;1.37;1.37;;;9.00;99.90;;;;;;5035834;28;20295;-65
2021/11/05 04:32:14;;;;;;;5.70;3.10;;;9.20;99.90;;;;;;5035713;28;20246;-67
2021/11/05 04:34:40;;;;;;;2.30;1.07;;;9.10;99.90;;;;;;5035652;28;20184;-65
2021/11/05 04:37:05;;;;;;;0.37;0.37;;;9.20;99.90;;;;;;5035520;28;20267;-65
2021/11/05 04:39:32;;;;;;;2.50;1.73;;;9.20;99.90;;;;;;5035445;28;20435;-65
2021/11/05 04:41:58;;;;;;;0.43;0.43;;;9.20;99.90;;;;;;5035424;28;20204;-65
2021/11/05 04:44:23;;;;;;;0.20;0.20;;;9.10;99.90;;;;;;5035381;28;20185;-65
2021/11/05 04:46:49;;;;;;;1.80;1.70;;;9.20;99.90;;;;;;5035389;28;20499;-65
2021/11/05 04:49:15;;;;;;;0.20;0.20;;;9.30;99.90;;;;;;5035243;28;20613;-65
2021/11/05 04:51:41;;;;;;;0.50;0.50;;;9.20;99.90;;;;;;5035111;28;20189;-65
2021/11/05 04:54:07;;;;;;;1.90;1.33;;;9.30;99.90;;;;;;5035136;28;20181;-65
2021/11/05 04:56:34;;;;;;;1.05;1.05;;;9.30;99.90;;;;;;5035318;28;20458;-65
2021/11/05 04:59:00;;;;;;;0.30;0.30;;;9.30;99.90;;;;;;5034921;28;20199;-65
2021/11/05 05:01:31;;;;;;;0.20;0.20;;;9.30;99.90;;;;;;5017484;28;20208;-66
2021/11/05 05:03:57;;;;;;;1.08;1.08;;;9.20;99.90;;;;;;5034314;28;20741;-67
2021/11/05 05:06:32;;;;;;;1.87;1.77;;;9.30;99.90;;;;;;5035641;28;20630;-66
2021/11/05 05:09:03;;;;;;;0.50;0.30;;;9.30;99.90;;;;;;5017262;28;20473;-65
2021/11/05 05:11:29;;;;;;;0.30;0.22;;;9.40;99.90;;;;;;5035516;28;20182;-66
2021/11/05 05:13:55;;;;;;;0.80;0.80;;;9.50;99.90;;;;;;5034827;28;20201;-65
2021/11/05 05:16:20;;;;;;;0.30;0.27;;;9.50;99.90;;;;;;5034798;28;20260;-65
2021/11/05 05:18:46;;;;;;;1.13;1.03;;;9.40;99.90;;;;;;5034608;28;20499;-65
2021/11/05 05:21:12;;;;;;;9.30;3.70;;;9.30;99.90;;;;;;5034752;28;20578;-66
2021/11/05 05:23:38;;;;;;;0.68;0.68;;;9.20;99.90;;;;;;5034697;28;20266;-64
2021/11/05 05:26:04;;;;;;;0.20;0.20;;;9.10;99.90;;;;;;5034718;28;20306;-64
2021/11/05 05:28:31;;;;;;;0.60;0.60;;;9.10;99.90;;;;;;5034444;28;20639;-65
2021/11/05 05:31:04;;;;;;;0.20;0.20;;;9.00;99.90;;;;;;5034563;28;20435;-64
2021/11/05 05:33:30;;;;;;;4.35;2.40;;;9.10;99.90;;;;;;5019128;28;20195;-65
2021/11/05 05:35:56;;;;;;;0.20;0.20;;;8.90;99.90;;;;;;5034679;28;20269;-65
2021/11/05 05:38:21;;;;;;;2.57;1.23;;;8.80;99.90;;;;;;5034235;28;20770;-65
2021/11/05 05:40:47;;;;;;;0.33;0.33;;;8.70;99.90;;;;;;5034441;28;20215;-65
2021/11/05 05:43:12;;;;;;;1.10;1.10;;;8.70;99.90;;;;;;5017182;28;20195;-65
2021/11/05 05:45:38;;;;;;;0.20;0.20;;;8.60;99.90;;;;;;5034451;28;20196;-66
2021/11/05 05:48:04;;;;;;;1.37;1.27;;;8.50;99.90;;;;;;5033978;28;20188;-67
2021/11/05 05:50:30;;;;;;;0.52;0.52;;;8.50;99.90;;;;;;5034513;28;20637;-65
2021/11/05 05:52:55;;;;;;;1.30;1.27;;;8.30;99.90;;;;;;5035112;28;20184;-65
2021/11/05 05:55:24;;;;;;;1.17;1.17;;;8.30;99.90;;;;;;5034620;28;20190;-67
2021/11/05 05:57:51;;;;;;;0.20;0.20;;;8.20;99.90;;;;;;5034173;28;20200;-67
2021/11/05 06:00:16;;;;;;;0.20;0.10;;;8.30;99.90;;;;;;5033773;28;20508;-67
2021/11/05 06:02:42;;;;;;;0.20;0.20;;;8.40;99.90;;;;;;5033935;28;20307;-68
2021/11/05 06:05:09;;;;;;;0.20;0.20;;;8.40;99.90;;;;;;5033848;28;20178;-67
2021/11/05 06:07:35;;;;;;;0.20;0.20;;;8.30;99.90;;;;;;5033911;28;20184;-67
2021/11/05 06:10:01;;;;;;;0.30;0.30;;;8.30;99.90;;;;;;5033737;28;20188;-67
2021/11/05 06:12:28;;;;;;;0.40;0.40;;;8.20;99.90;;;;;;5033787;28;20502;-67
2021/11/05 06:14:53;;;;;;;0.30;0.30;;;8.20;99.90;;;;;;5033481;28;20199;-67
2021/11/05 06:17:19;;;;;;;1.07;0.50;;;8.10;99.90;;;;;;5033566;28;20173;-67
2021/11/05 06:19:45;;;;;;;0.67;0.67;;;8.10;99.90;;;;;;5033145;28;20519;-68
2021/11/05 06:22:11;;;;;;;2.10;1.50;;;8.10;99.90;;;;;;5033667;28;20192;-68
2021/11/05 06:24:38;;;;;;;0.52;0.52;;;8.20;99.90;;;;;;5033804;28;20618;-68
2021/11/05 06:27:04;;;;;;;0.30;0.30;;;8.10;99.90;;;;;;5033573;28;20173;-68
2021/11/05 06:29:29;;;;;;;0.87;0.80;;;8.20;99.90;;;;;;5033386;28;20253;-67
2021/11/05 06:31:55;;;;;;;0.93;0.93;;;8.20;99.90;;;;;;5033589;28;20281;-67
2021/11/05 06:34:21;;;;;;;0.30;0.20;;;8.10;99.90;;;;;;5034132;28;20852;-66
2021/11/05 06:36:46;;;;;;;0.37;0.37;;;8.10;99.90;;;;;;5033278;28;20193;-65
2021/11/05 06:39:13;;;;;;;0.93;0.93;;;8.10;99.90;;;;;;5032520;28;20299;-65
2021/11/05 06:41:38;;;;;;;0.30;0.20;;;8.10;99.90;;;;;;5032810;28;20198;-65
2021/11/05 06:44:04;;;;;;;1.17;1.17;;;8.20;99.90;;;;;;5031921;28;20200;-65
2021/11/05 06:46:30;;;;;;;2.00;1.90;;;8.00;99.90;;;;;;5033687;28;20183;-65
2021/11/05 06:48:55;;;;;;;0.83;0.70;;;8.10;99.90;;;;;;5033618;28;20498;-66
2021/11/05 06:51:21;;;;;;;1.20;1.20;;;8.10;99.90;;;;;;5033591;28;20486;-65
2021/11/05 06:53:47;;;;;;;1.17;1.07;;;8.10;99.90;;;;;;5033664;28;20204;-66
2021/11/05 06:56:13;;;;;;;0.20;0.20;;;8.10;99.90;;;;;;5033777;28;20185;-67
2021/11/05 06:58:38;;;;;;;0.20;0.20;;;8.10;99.90;;;;;;5033478;28;20432;-65
2021/11/05 07:01:05;;;;;;;0.20;0.10;;;8.30;99.90;;;;;;5033575;28;20761;-66
2021/11/05 07:03:31;;;;;;;0.40;0.40;;;8.40;99.90;;;;;;5033613;28;20592;-66
2021/11/05 07:05:58;;;;;;;0.20;0.13;;;8.40;99.90;;;;;;5033803;28;20268;-66
2021/11/05 07:08:25;;;;;;;1.50;1.45;;;8.40;99.90;;;;;;5033485;28;20181;-67
2021/11/05 07:10:50;;;;;;;0.20;0.20;;;8.50;99.90;;;;;;5032609;28;20622;-65
2021/11/05 07:13:16;;;;;;;0.20;0.20;;;8.50;99.90;;;;;;5031588;28;20342;-65
2021/11/05 07:15:41;;;;;;;0.60;0.60;;;8.60;99.90;;;;;;5016782;28;20238;-65
2021/11/05 07:18:07;;;;;;;1.60;0.50;;;8.70;99.90;;;;;;5032474;28;20517;-65
2021/11/05 07:20:35;;;;;;;0.20;0.20;;;8.60;99.90;;;;;;5028660;28;20211;-66
2021/11/05 07:23:00;;;;;;;0.20;0.20;;;8.60;99.90;;;;;;5029370;28;20203;-66
2021/11/05 07:25:26;;;;;;;1.23;1.20;;;8.60;99.90;;;;;;5032397;28;20615;-67
2021/11/05 07:27:52;;;;;;;0.20;0.20;;;8.70;99.90;;;;;;5029019;28;20218;-67
2021/11/05 07:30:18;;;;;;;0.80;0.77;;;8.70;99.90;;;;;;5032570;28;20420;-67
2021/11/05 07:32:45;;;;;;;0.20;0.20;;;8.60;99.90;;;;;;5036789;28;20607;-67
2021/11/05 07:35:13;;;;;;;0.90;0.47;;;8.60;99.90;;;;;;5035631;28;20276;-68
2021/11/05 07:37:38;;;;;;;0.52;0.52;;;8.60;99.90;;;;;;5036364;28;20193;-67
2021/11/05 07:40:04;;;;;;;0.43;0.30;;;8.60;99.90;;;;;;5036193;28;20523;-68
2021/11/05 07:42:30;;;;;;;0.22;0.20;;;8.70;99.90;;;;;;5036723;28;20177;-67
2021/11/05 07:44:56;;;;;;;0.63;0.63;;;8.70;99.90;;;;;;5036014;28;20181;-68
2021/11/05 07:47:23;;;;;;;0.40;0.40;;;8.70;99.90;;;;;;5036047;28;20530;-67
2021/11/05 07:49:50;;;;;;;0.20;0.10;;;8.80;99.90;;;;;;5036193;28;20173;-68
2021/11/05 07:52:19;;;;;;;0.50;0.50;;;9.00;99.90;;;;;;5031816;28;20193;-68
2021/11/05 07:54:47;;;;;;;0.20;0.20;;;9.20;99.90;;;;;;5035672;28;20192;-68
2021/11/05 07:57:14;;;;;;;6.18;1.67;;;9.40;99.90;;;;;;5034511;28;20630;-68
2021/11/05 07:59:40;;;;;;;0.20;0.20;;;9.50;99.90;;;;;;5035560;28;20635;-67
2021/11/05 08:02:06;;;;;;;0.20;0.20;;;9.60;99.90;;;;;;5034391;28;20335;-68
2021/11/05 08:04:31;;;;;;;0.40;0.40;;;9.70;99.90;;;;;;5032098;28;20269;-68
2021/11/05 08:06:57;;;;;;;0.27;0.20;;;9.90;99.90;;;;;;5035453;28;20454;-68
2021/11/05 08:09:22;;;;;;;0.77;0.63;;;10.10;99.90;;;;;;5015397;28;20178;-68
2021/11/05 08:11:48;;;;;;;3.67;1.47;;;10.10;99.90;;;;;;5022357;28;20216;-69
2021/11/05 08:14:14;;;;;;;0.70;0.63;;;10.10;99.90;;;;;;5022707;28;20208;-69
2021/11/05 08:16:40;;;;;;;4.00;1.23;;;10.10;99.90;;;;;;5035525;28;20193;-69
2021/11/05 08:19:05;;;;;;;0.20;0.20;;;10.10;99.90;;;;;;5035180;28;20831;-68
2021/11/05 08:21:31;;;;;;;0.20;0.10;;;10.20;99.90;;;;;;5026272;28;20292;-67
2021/11/05 08:23:58;;;;;;;2.23;0.83;;;10.10;99.90;;;;;;5035698;28;20220;-67
2021/11/05 08:26:25;;;;;;;0.35;0.35;;;10.20;99.90;;;;;;5036195;28;20182;-68
2021/11/05 08:28:51;;;;;;;0.20;0.20;;;10.20;99.90;;;;;;5034980;28;20682;-71
2021/11/05 08:31:17;;;;;;;0.20;0.20;;;10.40;99.90;;;;;;5035561;28;20572;-69
2021/11/05 08:33:44;;;;;;;0.20;0.10;;;10.50;99.90;;;;;;5035118;28;20177;-68
2021/11/05 08:36:14;;;;;;;2.25;2.15;;;10.60;99.90;;;;;;5035195;28;20219;-70
2021/11/05 08:38:41;;;;;;;0.20;0.20;;;10.50;99.90;;;;;;5017220;28;20221;-68
2021/11/05 08:41:07;;;;;;;0.30;0.20;;;10.60;99.90;;;;;;5035457;28;20200;-70
2021/11/05 08:43:34;;;;;;;0.30;0.20;;;10.70;99.90;;;;;;5035351;28;20511;-69
2021/11/05 08:46:05;;;;;;;1.10;1.10;;;11.00;99.90;;;;;;5027084;28;20618;-70
2021/11/05 08:48:32;;;;;;;0.30;0.20;;;11.00;99.90;;;;;;5034884;28;20178;-70
2021/11/05 08:51:02;;;;;;;0.30;0.20;;;10.90;99.90;;;;;;5017297;28;20615;-68
2021/11/05 08:53:28;;;;;;;1.95;0.77;;;11.00;99.90;;;;;;5035268;28;20223;-68
2021/11/05 08:55:53;;;;;;;0.77;0.77;;;11.00;99.90;;;;;;5034771;28;20186;-69
2021/11/05 08:58:19;;;;;;;0.30;0.30;;;10.90;99.90;;;;;;5034307;28;20615;-69
2021/11/05 09:00:45;;;;;;;0.47;0.40;;;10.80;99.90;;;;;;5034844;28;20228;-67
2021/11/05 09:03:10;;;;;;;0.30;0.20;;;10.90;99.90;;;;;;5034508;28;20315;-67
2021/11/05 09:05:37;;;;;;;0.30;0.20;;;10.90;99.90;;;;;;5034674;28;20259;-67
2021/11/05 09:08:04;;;;;;;1.05;0.73;;;10.80;99.90;;;;;;5034336;28;20201;-67
2021/11/05 09:10:29;;;;;;;0.65;0.65;;;10.90;99.90;;;;;;5017220;28;20181;-67
2021/11/05 09:12:56;;;;;;;0.30;0.20;;;10.80;99.90;;;;;;5034204;28;20235;-67
2021/11/05 09:15:25;;;;;;;0.20;0.20;;;10.90;99.90;;;;;;5034320;28;20181;-67
2021/11/05 09:17:52;;;;;;;2.95;0.80;;;10.80;99.90;;;;;;5034131;28;20600;-68
2021/11/05 09:20:18;;;;;;;0.30;0.20;;;10.80;99.90;;;;;;5034224;28;20224;-68
2021/11/05 09:22:46;;;;;;;0.30;0.20;;;10.70;99.90;;;;;;5034555;28;20515;-68
2021/11/05 09:25:11;;;;;;;0.43;0.43;;;11.00;99.90;;;;;;5034097;28;20264;-67
2021/11/05 09:27:37;;;;;;;0.20;0.20;;;11.10;99.90;;;;;;5034300;28;20204;-70
2021/11/05 09:30:06;;;;;;;0.70;0.67;;;11.10;99.90;;;;;;5033948;28;20431;-68
2021/11/05 09:32:32;;;;;;;0.20;0.20;;;11.20;99.90;;;;;;5034517;28;20834;-68
2021/11/05 09:34:58;;;;;;;0.20;0.20;;;11.20;99.90;;;;;;5034125;28;20231;-68
2021/11/05 09:37:23;;;;;;;0.23;0.20;;;11.30;99.90;;;;;;5016746;28;20188;-68
2021/11/05 09:39:50;;;;;;;0.50;0.50;;;11.40;99.90;;;;;;5033777;28;20428;-66
2021/11/05 09:42:16;;;;;;;2.58;0.82;;;11.50;99.90;;;;;;5033757;28;20654;-66
2021/11/05 09:44:43;;;;;;;0.30;0.20;;;11.60;99.90;;;;;;5033894;28;20191;-67
2021/11/05 09:47:08;;;;;;;1.30;1.30;;;11.70;99.90;;;;;;5033789;28;20273;-74
2021/11/05 09:49:34;;;;;;;0.30;0.20;;;11.70;99.90;;;;;;5032855;28;20205;-71
2021/11/05 09:52:04;;;;;;;1.67;0.93;;;11.80;99.90;;;;;;5033814;28;20236;-66
2021/11/05 09:54:31;;;;;;;0.30;0.20;;;11.60;99.90;;;;;;5033351;28;20439;-67
2021/11/05 09:56:57;;;;;;;0.40;0.30;;;11.50;99.90;;;;;;5033723;28;20288;-67
2021/11/05 09:59:24;;;;;;;0.30;0.20;;;11.50;99.90;;;;;;5033937;28;20193;-67
2021/11/05 10:01:50;;;;;;;2.15;1.52;;;11.50;99.90;;;;;;5033229;28;20216;-66
2021/11/05 10:04:16;;;;;;;0.30;0.10;;;11.60;99.90;;;;;;5033691;28;20165;-66
2021/11/05 10:07:10;;;;;;;0.50;0.47;;;11.80;99.90;;;;;;5033714;28;20497;-68
2021/11/05 10:09:40;;;;;;;1.35;1.25;;;11.90;99.90;;;;;;5014185;28;20175;-68
2021/11/05 10:12:13;;;;;;;0.30;0.20;;;11.90;99.90;;;;;;5014825;28;20611;-68
2021/11/05 10:14:40;;;;;;;0.30;0.17;;;12.10;99.90;;;;;;5014100;28;20201;-67
2021/11/05 10:17:08;;;;;;;0.50;0.30;;;12.10;99.90;;;;;;5013650;28;20205;-67
2021/11/05 10:19:55;;;;;;;0.30;0.10;;;12.00;99.90;;;;;;5013870;28;20209;-67
2021/11/05 10:22:43;;;;;;;0.50;0.50;;;12.00;99.90;;;;;;5014240;28;20208;-69
2021/11/05 10:25:27;;;;;;;0.82;0.40;;;12.40;99.90;;;;;;5014193;28;20251;-69
2021/11/05 10:28:10;;;;;;;0.70;0.30;;;12.20;99.90;;;;;;5013889;28;20239;-68
2021/11/05 10:30:51;;;;;;;0.30;0.20;;;12.10;99.90;;;;;;5031232;28;20610;-68
2021/11/05 10:33:20;;;;;;;0.30;0.20;;;12.30;99.90;;;;;;5032474;28;20177;-67
2021/11/05 10:35:51;;;;;;;0.30;0.20;;;12.50;99.90;;;;;;5032705;28;20260;-68
2021/11/05 10:38:18;;;;;;;0.30;0.20;;;12.50;45.10;;;;;;5033124;28;20323;-66
2021/11/05 10:40:48;;;;;;;0.40;0.22;;;12.70;41.60;;;;;;5033473;28;20220;-65
2021/11/05 10:43:35;;;;;;;0.30;0.20;;;12.70;1.00;;;;;;5015953;28;20681;-66
2021/11/05 10:46:03;;;;;;;0.30;0.10;;;12.80;16.90;;;;;;5032672;28;20685;-66
2021/11/05 10:48:30;;;;;;;3.03;1.27;;;12.30;11.20;;;;;;5033172;28;20562;-68
2021/11/05 10:50:59;;;;;;;0.30;0.20;;;12.30;42.20;;;;;;5013511;28;20184;-73
2021/11/05 10:53:29;;;;;;;0.60;0.40;;;12.30;57.40;;;;;;5028580;28;20189;-67
2021/11/05 10:56:25;;;;;;;0.30;0.20;;;12.50;23.90;;;;;;5033402;28;20223;-69
2021/11/05 10:59:03;;;;;;;0.30;0.10;;;12.50;26.80;;;;;;5033755;28;20272;-69
2021/11/05 11:01:34;;;;;;;0.30;0.20;;;12.60;1.00;;;;;;5035254;28;20220;-69
2021/11/05 11:04:03;;;;;;;0.30;0.20;;;12.80;1.00;;;;;;5038318;28;20276;-70
2021/11/05 11:06:42;;;;;;;0.63;0.50;;;12.90;1.00;;;;;;5038253;28;20177;-68
2021/11/05 11:09:10;;;;;;;1.30;1.20;;;12.90;1.00;;;;;;5037566;28;20622;-70
2021/11/05 11:11:38;;;;;;;3.25;2.05;;;12.90;1.00;;;;;;5037193;28;20189;-68
2021/11/05 11:14:05;;;;;;;3.33;0.30;;;12.90;1.00;;;;;;5030966;28;20205;-68
2021/11/05 11:16:32;;;;;;;0.40;0.30;;;12.80;1.00;;;;;;5033496;28;20223;-71
2021/11/05 11:19:02;;;;;;;1.55;0.73;;;12.80;1.00;;;;;;5025674;28;20185;-67
2021/11/05 11:21:32;;;;;;;0.30;0.20;;;12.90;1.00;;;;;;5033209;28;20212;-68
2021/11/05 11:23:59;;;;;;;2.15;0.85;;;13.00;1.00;;;;;;5037347;28;20181;-67
2021/11/05 11:26:26;;;;;;;0.30;0.20;;;13.00;1.00;;;;;;5036709;28;20265;-67
2021/11/05 11:28:51;;;;;;;0.30;0.20;;;12.90;1.00;;;;;;5036271;28;20177;-67
2021/11/05 11:31:18;;;;;;;0.83;0.40;;;12.90;1.00;;;;;;5036565;28;20517;-65
2021/11/05 11:33:46;;;;;;;0.55;0.20;;;12.90;1.00;;;;;;5036288;28;20225;-65
2021/11/05 11:36:12;;;;;;;0.40;0.40;;;12.70;1.00;;;;;;5033969;28;20500;-70
2021/11/05 11:38:39;;;;;;;0.30;0.20;;;12.90;1.00;;;;;;5035693;28;20615;-69
2021/11/05 11:41:09;;;;;;;0.30;0.20;;;12.80;1.00;;;;;;5036210;28;20232;-69
2021/11/05 11:43:37;;;;;;;0.30;0.20;;;12.70;1.00;;;;;;5036701;28;20178;-70
2021/11/05 11:46:02;;;;;;;0.30;0.20;;;12.70;1.00;;;;;;5035636;28;20182;-69
2021/11/05 11:48:46;;;;;;;0.30;0.20;;;12.60;1.00;;;;;;5032735;28;20280;-70
2021/11/05 11:51:25;;;;;;;0.30;0.20;;;12.70;1.00;;;;;;5034268;28;20559;-67
2021/11/05 11:54:11;;;;;;;0.40;0.20;;;12.70;1.00;;;;;;5029926;28;20177;-69
2021/11/05 11:56:40;;;;;;;0.30;0.20;;;12.50;1.00;;;;;;5034255;28;20250;-69
2021/11/05 11:59:11;;;;;;;0.40;0.40;;;12.50;1.00;;;;;;5016244;28;20216;-69
2021/11/05 12:01:40;;;;;;;0.30;0.20;;;12.70;1.00;;;;;;5035689;28;20375;-68
2021/11/05 12:04:08;;;;;;;1.52;0.20;;;12.60;1.00;;;;;;5034766;28;20193;-69
2021/11/05 12:06:46;;;;;;;0.30;0.15;;;12.70;1.00;;;;;;5035795;28;20606;-69
2021/11/05 12:09:35;;;;;;;0.30;0.20;;;12.60;1.00;;;;;;5036017;28;20174;-70
2021/11/05 12:12:19;;;;;;;0.30;0.10;;;12.70;1.00;;;;;;5015692;28;20600;-69
2021/11/05 12:17:54;;;;;;;0.30;0.20;;;12.80;1.00;;;;;;5031759;28;20193;-66
2021/11/05 12:20:32;;;;;;;0.30;0.20;;;12.80;1.00;;;;;;5022066;28;20209;-65
2021/11/05 12:23:20;;;;;;;0.70;0.60;;;13.00;1.00;;;;;;5033875;28;20277;-68
2021/11/05 12:26:01;;;;;;;0.30;0.20;;;13.00;1.00;;;;;;5034950;28;20173;-68
2021/11/05 12:28:30;;;;;;;0.30;0.20;;;13.10;99.90;;;;;;5032230;28;20192;-67
2021/11/05 12:31:17;;;;;;;0.40;0.30;;;13.10;99.90;;;;;;5034930;28;20482;-68
2021/11/05 12:33:43;;;;;;;0.30;0.20;;;12.80;99.90;;;;;;5034715;28;20181;-70
2021/11/05 12:36:09;;;;;;;0.30;0.20;;;12.70;1.00;;;;;;5035315;28;20578;-71
2021/11/05 12:39:01;;;;;;;11.13;1.80;;;12.40;1.00;;;;;;5035094;28;20192;-67
2021/11/05 12:41:27;;;;;;;0.30;0.20;;;12.30;1.00;;;;;;5034766;28;20215;-70
2021/11/05 12:43:53;;;;;;;0.30;0.20;;;12.20;1.00;;;;;;5035252;28;20178;-68
2021/11/05 12:46:23;;;;;;;0.60;0.40;;;12.30;1.00;;;;;;5001315;28;20429;-68
2021/11/05 12:48:55;;;;;;;1.15;0.40;;;12.40;1.00;;;;;;5034196;28;20462;-68
2021/11/05 12:51:34;;;;;;;0.40;0.20;;;12.60;1.00;;;;;;5035048;28;20513;-68
2021/11/05 12:54:01;;;;;;;0.30;0.20;;;12.60;1.00;;;;;;5034837;28;20183;-68
2021/11/05 12:56:29;;;;;;;0.30;0.20;;;12.60;1.00;;;;;;5040059;28;20252;-68
2021/11/05 12:58:55;;;;;;;0.30;0.20;;;12.60;1.00;;;;;;5040345;28;20259;-68
2021/11/05 13:01:22;;;;;;;0.30;0.20;;;12.60;1.00;;;;;;5035083;28;20213;-67